Terminal Aerodrome Forecast
Issued by NWS

Home | Current Version | Previous Version | Text Only | Print | Product List | Glossary On
Versions: 1 2 3 4 5 6 7 8 9 10 11 12 13 14 15 16 17 18 19 20 21 22
000
FTUS43 KGLD 212339
TAFMCK
TAF
KMCK 212339Z 2200/2224 10014G21KT P6SM SCT050 BKN150
     FM220600 10014KT P6SM VCSH OVC040
     FM221000 10012KT P6SM OVC035
     FM221300 13010KT P6SM BKN030
     FM221800 16018G26KT P6SM BKN090=

USA.gov is the U.S. government's official web portal to all federal, state and local government web resources and services.